createdAt,value
2023-03-04T00:01:31.709Z,31.43
2023-03-04T00:03:58.782Z,30.87
2023-03-04T00:06:26.061Z,35.17
2023-03-04T00:08:53.214Z,33.83
2023-03-04T00:11:20.206Z,34.13
2023-03-04T00:13:47.658Z,31.80
2023-03-04T00:16:14.620Z,35.67
2023-03-04T00:18:41.647Z,28.60
2023-03-04T00:21:08.736Z,31.73
2023-03-04T00:23:35.953Z,28.67
2023-03-04T00:26:02.867Z,28.67
2023-03-04T00:28:29.812Z,28.37
2023-03-04T00:30:56.755Z,30.03
2023-03-04T00:33:23.750Z,24.57
2023-03-04T00:35:50.950Z,25.80
2023-03-04T00:38:17.842Z,28.10
2023-03-04T00:40:44.774Z,29.60
2023-03-04T00:43:11.751Z,30.83
2023-03-04T00:45:38.762Z,26.57
2023-03-04T00:48:05.841Z,26.03
2023-03-04T00:50:32.823Z,30.27
2023-03-04T00:53:00.015Z,29.80
2023-03-04T00:55:27.016Z,25.60
2023-03-04T00:57:54.098Z,27.73
2023-03-04T01:00:21.396Z,31.07
2023-03-04T01:02:48.614Z,28.87
2023-03-04T01:05:16.089Z,27.83
2023-03-04T01:07:43.268Z,29.63
2023-03-04T01:10:12.082Z,29.23
2023-03-04T01:12:41.625Z,33.77
2023-03-04T01:15:10.369Z,28.83
2023-03-04T01:17:40.177Z,28.53
2023-03-04T01:20:08.431Z,35.43
2023-03-04T01:22:36.177Z,27.70
2023-03-04T01:25:03.744Z,24.77
2023-03-04T01:27:32.720Z,29.37
2023-03-04T01:29:59.670Z,25.70
2023-03-04T01:32:26.784Z,24.90
2023-03-04T01:34:53.838Z,27.50
2023-03-04T01:37:20.878Z,27.27
2023-03-04T01:39:47.928Z,27.27
2023-03-04T01:42:20.716Z,26.53
2023-03-04T01:44:48.369Z,28.87
2023-03-04T01:47:15.624Z,26.97
2023-03-04T01:49:43.092Z,34.13
2023-03-04T01:52:14.158Z,29.00
2023-03-04T01:54:41.714Z,32.30
2023-03-04T01:57:20.438Z,27.40
2023-03-04T01:59:48.542Z,28.80
2023-03-04T02:02:15.534Z,29.37
2023-03-04T02:04:42.981Z,27.23
2023-03-04T02:07:10.468Z,29.43
2023-03-04T02:09:37.772Z,32.37
2023-03-04T02:12:05.393Z,35.97
2023-03-04T02:14:32.290Z,27.60
2023-03-04T02:16:59.226Z,26.80
2023-03-04T02:19:45.414Z,27.63
2023-03-04T02:22:12.449Z,28.23
2023-03-04T02:24:43.732Z,29.40
2023-03-04T02:27:10.766Z,29.37
2023-03-04T02:29:38.770Z,39.20
2023-03-04T02:32:06.583Z,38.03
2023-03-04T02:34:36.305Z,37.13
2023-03-04T02:37:04.495Z,31.80
2023-03-04T02:39:44.961Z,25.83
2023-03-04T02:42:13.134Z,29.40
2023-03-04T02:44:47.737Z,27.77
2023-03-04T02:47:20.685Z,20.37
2023-03-04T02:49:49.373Z,24.47
2023-03-04T02:52:25.100Z,21.50
2023-03-04T02:54:52.027Z,19.13
2023-03-04T02:57:19.246Z,21.90
2023-03-04T02:59:51.738Z,21.80
2023-03-04T03:02:22.202Z,22.93
2023-03-04T03:04:49.173Z,25.87
2023-03-04T03:07:18.567Z,25.00
2023-03-04T03:09:45.538Z,23.40
2023-03-04T03:12:12.409Z,26.87
2023-03-04T03:14:39.662Z,24.30
2023-03-04T03:17:09.297Z,24.87
2023-03-04T03:19:36.268Z,28.37
2023-03-04T03:22:06.327Z,25.43
2023-03-04T03:24:33.581Z,23.73
2023-03-04T03:27:00.535Z,24.57
2023-03-04T03:29:27.680Z,24.53
2023-03-04T03:31:54.708Z,26.23
2023-03-04T03:34:21.844Z,24.73
2023-03-04T03:36:49.733Z,21.67
2023-03-04T03:39:16.980Z,20.93
2023-03-04T03:41:43.948Z,24.20
2023-03-04T03:44:10.941Z,23.03
2023-03-04T03:46:38.090Z,24.23
2023-03-04T03:49:05.068Z,24.37
2023-03-04T03:51:32.059Z,29.60
2023-03-04T03:53:58.979Z,26.10
2023-03-04T03:56:25.892Z,25.70
2023-03-04T03:58:52.845Z,24.17
2023-03-04T04:01:19.788Z,24.67
2023-03-04T04:03:46.778Z,30.73
2023-03-04T04:06:13.938Z,25.60
2023-03-04T04:08:40.938Z,21.30
2023-03-04T04:11:10.520Z,17.70
2023-03-04T04:13:39.273Z,20.73
2023-03-04T04:16:07.008Z,17.77
2023-03-04T04:18:33.979Z,21.97
2023-03-04T04:21:01.013Z,21.30
2023-03-04T04:23:28.110Z,16.97
2023-03-04T04:25:56.053Z,19.33
2023-03-04T04:28:23.561Z,19.90
2023-03-04T04:30:51.067Z,20.53
2023-03-04T04:33:18.129Z,22.90
2023-03-04T04:35:45.107Z,24.07
2023-03-04T04:38:12.083Z,24.80
2023-03-04T04:40:39.020Z,25.00
2023-03-04T04:43:06.060Z,20.53
2023-03-04T04:45:33.027Z,23.47
2023-03-04T04:48:00.371Z,26.07
2023-03-04T04:50:27.623Z,27.30
2023-03-04T04:52:54.587Z,24.93
2023-03-04T04:55:21.996Z,27.07
2023-03-04T04:57:48.927Z,27.30
2023-03-04T05:00:16.370Z,23.07
2023-03-04T05:02:43.536Z,25.80
2023-03-04T05:05:10.726Z,29.23
2023-03-04T05:07:37.767Z,25.50
2023-03-04T05:10:05.531Z,29.97
2023-03-04T05:12:32.609Z,29.10
2023-03-04T05:14:59.624Z,26.50
2023-03-04T05:17:26.520Z,30.50
2023-03-04T05:19:53.562Z,29.17
2023-03-04T05:22:20.471Z,31.07
2023-03-04T05:24:47.372Z,27.83
2023-03-04T05:27:14.262Z,26.70
2023-03-04T05:29:44.204Z,26.63
2023-03-04T05:32:11.439Z,26.57
2023-03-04T05:34:38.409Z,27.77
2023-03-04T05:37:05.619Z,24.37
2023-03-04T05:39:32.741Z,30.00
2023-03-04T05:41:59.556Z,27.60
2023-03-04T05:44:26.473Z,24.47
2023-03-04T05:46:53.592Z,23.17
2023-03-04T05:49:20.557Z,25.53
2023-03-04T05:51:47.683Z,22.23
2023-03-04T05:54:15.146Z,28.17
2023-03-04T05:56:42.415Z,26.87
2023-03-04T05:59:09.365Z,25.50
2023-03-04T06:01:36.430Z,26.20
2023-03-04T06:04:03.531Z,29.70
2023-03-04T06:06:30.676Z,28.20
2023-03-04T06:08:57.619Z,27.43
2023-03-04T06:11:24.558Z,23.63
2023-03-04T06:13:51.520Z,24.33
2023-03-04T06:16:18.458Z,26.17
2023-03-04T06:18:45.470Z,27.20
2023-03-04T06:21:12.450Z,27.07
2023-03-04T06:23:39.585Z,33.17
2023-03-04T06:26:09.450Z,30.00
2023-03-04T06:28:36.384Z,21.97
2023-03-04T06:31:03.893Z,23.03
2023-03-04T06:33:30.782Z,17.60
2023-03-04T06:35:57.921Z,21.13
2023-03-04T06:38:25.916Z,23.93
2023-03-04T06:40:55.967Z,19.23
2023-03-04T06:43:24.037Z,20.53
2023-03-04T06:45:51.210Z,19.60
2023-03-04T06:48:18.151Z,17.53
2023-03-04T06:50:45.134Z,19.30
2023-03-04T06:53:12.049Z,20.47
2023-03-04T06:55:39.124Z,25.07
2023-03-04T06:58:06.193Z,19.43
2023-03-04T07:00:33.348Z,20.67
2023-03-04T07:03:01.221Z,20.27
2023-03-04T07:05:28.643Z,19.27
2023-03-04T07:07:56.879Z,21.47
2023-03-04T07:10:26.107Z,20.80
2023-03-04T07:12:53.109Z,25.63
2023-03-04T07:15:20.045Z,24.87
2023-03-04T07:17:47.467Z,24.23
2023-03-04T07:20:14.556Z,25.47
2023-03-04T07:22:41.571Z,22.53
2023-03-04T07:25:09.071Z,21.40
2023-03-04T07:27:36.413Z,24.40
2023-03-04T07:30:03.795Z,24.87
2023-03-04T07:32:34.532Z,25.43
2023-03-04T07:35:02.651Z,21.93
2023-03-04T07:37:30.748Z,26.93
2023-03-04T07:39:57.737Z,34.63
2023-03-04T07:42:24.704Z,26.57
2023-03-04T07:45:00.230Z,25.67
2023-03-04T07:47:27.938Z,28.67
2023-03-04T07:49:56.475Z,30.57
2023-03-04T07:52:23.514Z,26.70
2023-03-04T07:54:50.615Z,26.13
2023-03-04T07:57:17.623Z,31.30
2023-03-04T07:59:44.555Z,23.03
2023-03-04T08:02:11.584Z,26.10
2023-03-04T08:04:38.929Z,26.80
2023-03-04T08:07:05.847Z,25.43
2023-03-04T08:09:32.749Z,26.20
2023-03-04T08:11:59.894Z,22.73
2023-03-04T08:14:26.902Z,24.20
2023-03-04T08:16:53.819Z,27.47
2023-03-04T08:19:20.858Z,29.90
2023-03-04T08:21:47.954Z,33.63
2023-03-04T08:24:16.195Z,28.27
2023-03-04T08:26:46.534Z,30.77
2023-03-04T08:29:17.481Z,31.27
2023-03-04T08:31:48.693Z,30.50
2023-03-04T08:34:17.721Z,30.80
2023-03-04T08:36:45.407Z,30.43
2023-03-04T08:39:15.647Z,26.17
2023-03-04T08:41:42.674Z,27.00
2023-03-04T08:44:10.613Z,23.37
2023-03-04T08:46:39.584Z,24.83
2023-03-04T08:49:07.325Z,27.50
2023-03-04T08:51:36.002Z,25.83
2023-03-04T08:54:04.204Z,24.57
2023-03-04T08:56:31.423Z,27.60
2023-03-04T08:58:58.969Z,24.80
2023-03-04T09:01:26.066Z,25.30
2023-03-04T09:03:53.206Z,27.17
2023-03-04T09:06:20.482Z,21.10
2023-03-04T09:12:09.141Z,18.90
2023-03-04T09:14:36.108Z,22.33
2023-03-04T09:17:05.136Z,20.23
2023-03-04T09:19:32.406Z,16.57
2023-03-04T09:21:59.653Z,15.37
2023-03-04T09:24:29.620Z,20.57
2023-03-04T09:26:57.058Z,18.80
2023-03-04T09:29:24.898Z,16.63
2023-03-04T09:31:51.945Z,18.00
2023-03-04T09:34:19.094Z,17.10
2023-03-04T09:36:46.453Z,13.50
2023-03-04T09:39:13.602Z,17.43
2023-03-04T09:41:49.017Z,20.23
2023-03-04T09:44:36.981Z,18.10
2023-03-04T09:47:11.634Z,12.90
2023-03-04T09:49:45.419Z,13.30
2023-03-04T09:52:21.370Z,17.77
2023-03-04T09:55:07.093Z,12.90
2023-03-04T09:57:46.063Z,15.53
2023-03-04T10:00:20.453Z,15.17
2023-03-04T10:03:04.950Z,15.83
2023-03-04T10:05:38.292Z,25.77
2023-03-04T10:08:24.812Z,16.50
2023-03-04T10:10:54.564Z,11.07
2023-03-04T10:13:40.270Z,12.07
2023-03-04T10:19:55.022Z,13.93
2023-03-04T10:22:32.795Z,15.23
2023-03-04T10:25:11.056Z,16.00
2023-03-04T10:27:38.228Z,17.93
2023-03-04T10:30:18.842Z,11.97
2023-03-04T10:32:48.383Z,17.77
2023-03-04T10:35:15.692Z,20.73
2023-03-04T10:37:49.512Z,16.00
2023-03-04T10:40:25.947Z,15.20
2023-03-04T10:42:54.642Z,13.23
2023-03-04T10:45:24.908Z,11.63
2023-03-04T10:47:53.994Z,11.93
2023-03-04T10:50:27.220Z,9.63
2023-03-04T10:52:56.449Z,9.57
2023-03-04T10:55:30.203Z,15.47
2023-03-04T10:58:04.449Z,10.60
2023-03-04T11:00:36.959Z,12.93
2023-03-04T11:03:22.457Z,13.93
2023-03-04T11:05:50.741Z,15.27
2023-03-04T11:08:19.957Z,14.07
2023-03-04T11:10:48.043Z,12.50
2023-03-04T11:13:22.595Z,13.67
2023-03-04T11:16:02.912Z,12.30
2023-03-04T11:18:46.827Z,16.57
2023-03-04T11:21:23.120Z,15.07
2023-03-04T11:24:01.092Z,14.27
2023-03-04T11:26:46.818Z,11.50
2023-03-04T11:29:16.940Z,16.80
2023-03-04T11:31:57.013Z,11.07
2023-03-04T11:34:53.823Z,13.60
2023-03-04T11:37:34.007Z,15.50
2023-03-04T11:40:16.355Z,12.07
2023-03-04T11:42:49.688Z,13.87
2023-03-04T11:45:37.232Z,11.80
2023-03-04T11:48:18.361Z,13.30
2023-03-04T11:51:05.789Z,17.63
2023-03-04T11:53:59.175Z,13.00
2023-03-04T11:56:37.995Z,14.97
2023-03-04T11:59:39.066Z,13.43
2023-03-04T12:02:16.426Z,14.10
2023-03-04T12:04:43.570Z,14.13
2023-03-04T12:07:43.692Z,19.70
2023-03-04T12:10:19.584Z,12.90
2023-03-04T12:13:07.769Z,14.93
2023-03-04T12:15:46.928Z,15.47
2023-03-04T12:18:39.356Z,15.90
2023-03-04T12:21:39.551Z,18.07
2023-03-04T12:24:29.964Z,14.30
2023-03-04T12:27:19.259Z,17.00
2023-03-04T12:30:14.090Z,16.60
2023-03-04T12:32:50.117Z,17.77
2023-03-04T12:35:28.708Z,17.03
2023-03-04T12:38:20.830Z,16.03
2023-03-04T12:41:14.081Z,18.80
2023-03-04T12:43:59.311Z,17.33
2023-03-04T12:46:40.996Z,17.80
2023-03-04T12:49:29.256Z,20.07
2023-03-04T12:52:23.153Z,15.27
2023-03-04T12:54:58.280Z,16.50
2023-03-04T12:57:31.627Z,13.63
2023-03-04T13:00:20.452Z,13.83
2023-03-04T13:06:25.832Z,13.40
2023-03-04T13:09:14.034Z,19.60
2023-03-04T13:11:56.038Z,25.43
2023-03-04T13:14:29.766Z,21.80
2023-03-04T13:17:03.388Z,16.23
2023-03-04T13:19:45.881Z,15.67
2023-03-04T13:22:28.300Z,11.70
2023-03-04T13:24:57.344Z,14.20
2023-03-04T13:28:05.920Z,18.30
2023-03-04T13:30:33.021Z,14.70
2023-03-04T13:33:19.167Z,15.47
2023-03-04T13:35:47.356Z,19.43
2023-03-04T13:38:34.978Z,14.23
2023-03-04T13:41:37.420Z,17.37
2023-03-04T13:44:33.191Z,13.03
2023-03-04T13:47:10.484Z,13.50
2023-03-04T13:49:37.631Z,13.03
2023-03-04T13:52:37.377Z,15.73
2023-03-04T13:55:34.324Z,13.87
2023-03-04T13:58:03.345Z,14.10
2023-03-04T14:00:30.514Z,11.63
2023-03-04T14:02:57.570Z,12.40
2023-03-04T14:05:24.526Z,10.90
2023-03-04T14:07:51.537Z,12.80
2023-03-04T14:10:25.244Z,17.97
2023-03-04T14:12:56.098Z,16.97
2023-03-04T14:15:24.675Z,12.27
2023-03-04T14:17:54.760Z,18.13
2023-03-04T14:20:21.812Z,15.77
2023-03-04T14:22:48.938Z,15.37
2023-03-04T14:25:28.200Z,15.30
2023-03-04T14:28:16.875Z,15.07
2023-03-04T14:30:52.325Z,15.73
2023-03-04T14:33:26.050Z,17.20
2023-03-04T14:36:00.669Z,13.53
2023-03-04T14:38:34.023Z,13.47
2023-03-04T14:41:06.891Z,14.03
2023-03-04T14:44:09.540Z,13.40
2023-03-04T14:47:00.676Z,14.07
2023-03-04T14:49:34.300Z,15.43
2023-03-04T14:52:01.406Z,14.17
2023-03-04T14:54:43.906Z,13.50
2023-03-04T14:57:32.392Z,18.07
2023-03-04T15:00:26.042Z,11.97
2023-03-04T15:02:59.318Z,12.40
2023-03-04T15:05:33.671Z,18.47
2023-03-04T15:08:37.251Z,18.77
2023-03-04T15:11:06.488Z,18.07
2023-03-04T15:13:42.296Z,13.70
2023-03-04T15:16:11.152Z,13.57
2023-03-04T15:18:38.863Z,13.03
2023-03-04T15:21:30.828Z,13.50
2023-03-04T15:23:57.912Z,12.07
2023-03-04T15:26:24.936Z,16.90
2023-03-04T15:28:51.920Z,15.77
2023-03-04T15:31:25.963Z,28.20
2023-03-04T15:33:53.715Z,19.13
2023-03-04T15:36:24.196Z,16.93
2023-03-04T15:38:53.265Z,20.13
2023-03-04T15:41:27.517Z,20.10
2023-03-04T15:43:55.356Z,16.87
2023-03-04T15:46:22.543Z,19.43
2023-03-04T15:48:50.591Z,12.97
2023-03-04T15:51:22.272Z,15.73
2023-03-04T15:53:59.159Z,17.37
2023-03-04T15:56:29.448Z,28.83
2023-03-04T15:58:58.952Z,27.87
2023-03-04T16:01:26.472Z,20.70
2023-03-04T16:03:54.033Z,20.23
2023-03-04T16:06:23.624Z,20.83
2023-03-04T16:08:52.168Z,25.23
2023-03-04T16:11:23.161Z,28.20
2023-03-04T16:13:50.361Z,23.93
2023-03-04T16:16:18.281Z,39.73
2023-03-04T16:18:45.684Z,30.43
2023-03-04T16:21:19.182Z,27.03
2023-03-04T16:23:49.020Z,34.70
2023-03-04T16:26:20.407Z,26.63
2023-03-04T16:28:47.580Z,23.57
2023-03-04T16:31:15.771Z,19.83
2023-03-04T16:33:43.219Z,18.93
2023-03-04T16:36:19.501Z,33.23
2023-03-04T16:38:46.703Z,22.97
2023-03-04T16:41:16.033Z,24.27
2023-03-04T16:43:43.723Z,22.33
2023-03-04T16:46:13.711Z,28.53
2023-03-04T16:48:41.466Z,25.87
2023-03-04T16:51:15.527Z,23.60
2023-03-04T16:53:46.586Z,23.90
2023-03-04T16:56:18.552Z,31.67
2023-03-04T16:58:46.091Z,32.07
2023-03-04T17:01:22.343Z,27.73
2023-03-04T17:03:49.376Z,20.70
2023-03-04T17:06:16.661Z,19.90
2023-03-04T17:08:43.706Z,27.37
2023-03-04T17:11:17.982Z,22.13
2023-03-04T17:13:45.691Z,26.10
2023-03-04T17:16:13.738Z,21.93
2023-03-04T17:18:41.449Z,23.67
2023-03-04T17:21:16.103Z,24.83
2023-03-04T17:23:47.396Z,25.07
2023-03-04T17:26:15.642Z,28.30
2023-03-04T17:28:43.074Z,25.97
2023-03-04T17:31:12.197Z,29.13
2023-03-04T17:33:39.688Z,27.83
2023-03-04T17:36:09.943Z,35.17
2023-03-04T17:38:38.594Z,32.03
2023-03-04T17:41:07.930Z,39.53
2023-03-04T17:43:35.570Z,28.47
2023-03-04T17:46:12.344Z,31.43
2023-03-04T17:48:39.701Z,23.00
2023-03-04T17:51:06.823Z,27.13
2023-03-04T17:53:33.858Z,26.30
2023-03-04T17:56:03.703Z,33.93
2023-03-04T17:58:32.089Z,29.97
2023-03-04T18:01:25.813Z,36.33
2023-03-04T18:03:53.540Z,30.30
2023-03-04T18:06:22.854Z,26.50
2023-03-04T18:08:50.215Z,27.10
2023-03-04T18:11:17.257Z,21.87
2023-03-04T18:13:44.885Z,28.87
2023-03-04T18:16:15.856Z,25.67
2023-03-04T18:18:44.308Z,27.90
2023-03-04T18:21:13.617Z,22.97
2023-03-04T18:23:40.713Z,27.33
2023-03-04T18:26:08.112Z,21.10
2023-03-04T18:28:35.264Z,24.53
2023-03-04T18:31:02.514Z,26.73
2023-03-04T18:33:30.867Z,22.20
2023-03-04T18:35:59.870Z,23.00
2023-03-04T18:38:27.727Z,22.97
2023-03-04T18:41:03.312Z,21.17
2023-03-04T18:43:30.417Z,20.07
2023-03-04T18:46:03.544Z,22.57
2023-03-04T18:48:33.803Z,19.00
2023-03-04T18:51:00.707Z,21.27
2023-03-04T18:53:31.754Z,20.83
2023-03-04T18:56:04.008Z,17.97
2023-03-04T18:58:33.529Z,20.67
2023-03-04T19:01:04.917Z,18.60
2023-03-04T19:03:34.673Z,22.43
2023-03-04T19:06:01.762Z,27.73
2023-03-04T19:08:28.962Z,25.70
2023-03-04T19:10:56.470Z,28.23
2023-03-04T19:13:23.447Z,21.90
2023-03-04T19:15:51.165Z,26.43
2023-03-04T19:18:18.489Z,26.33
2023-03-04T19:20:45.460Z,26.53
2023-03-04T19:23:13.594Z,25.17
2023-03-04T19:25:41.110Z,28.87
2023-03-04T19:28:08.679Z,26.60
2023-03-04T19:30:41.890Z,26.77
2023-03-04T19:33:10.399Z,23.50
2023-03-04T19:35:42.526Z,26.43
2023-03-04T19:38:09.653Z,24.93
2023-03-04T19:40:46.796Z,27.63
2023-03-04T19:43:14.911Z,24.37
2023-03-04T19:45:42.114Z,28.17
2023-03-04T19:48:09.148Z,23.10
2023-03-04T19:50:36.132Z,25.47
2023-03-04T19:53:03.119Z,20.87
2023-03-04T19:55:30.083Z,29.50
2023-03-04T19:57:57.016Z,23.67
2023-03-04T20:00:24.421Z,23.43
2023-03-04T20:02:52.040Z,29.33
2023-03-04T20:05:19.125Z,33.43
2023-03-04T20:07:46.033Z,29.63
2023-03-04T20:10:14.451Z,27.93
2023-03-04T20:12:41.468Z,27.57
2023-03-04T20:15:09.124Z,23.70
2023-03-04T20:17:36.566Z,31.50
2023-03-04T20:20:03.762Z,36.20
2023-03-04T20:22:31.458Z,35.23
2023-03-04T20:24:58.934Z,34.60
2023-03-04T20:27:25.944Z,31.43
2023-03-04T20:29:53.556Z,29.43
2023-03-04T20:32:20.806Z,25.97
2023-03-04T20:34:49.616Z,28.67
2023-03-04T20:37:16.656Z,29.40
2023-03-04T20:39:43.694Z,26.63
2023-03-04T20:42:10.660Z,28.00
2023-03-04T20:44:37.490Z,28.30
2023-03-04T20:47:04.709Z,22.67
2023-03-04T20:49:31.833Z,21.23
2023-03-04T20:52:06.497Z,25.47
2023-03-04T20:54:35.057Z,25.30
2023-03-04T20:57:02.479Z,23.43
2023-03-04T20:59:30.087Z,19.77
2023-03-04T21:01:57.153Z,18.23
2023-03-04T21:04:24.142Z,19.77
2023-03-04T21:06:52.572Z,22.70
2023-03-04T21:09:21.895Z,19.63
2023-03-04T21:11:51.134Z,18.20
2023-03-04T21:14:24.377Z,22.80
2023-03-04T21:16:56.344Z,21.40
2023-03-04T21:19:29.833Z,21.80
2023-03-04T21:21:58.123Z,26.20
2023-03-04T21:24:28.632Z,23.93
2023-03-04T21:26:55.869Z,20.10
2023-03-04T21:29:25.282Z,25.47
2023-03-04T21:32:21.142Z,25.20
2023-03-04T21:34:52.385Z,25.20
2023-03-04T21:37:20.937Z,26.50
2023-03-04T21:39:48.212Z,35.23
2023-03-04T21:42:15.224Z,25.23
2023-03-04T21:44:50.746Z,29.23
2023-03-04T21:47:21.968Z,26.07
2023-03-04T21:49:49.359Z,25.43
2023-03-04T21:52:21.172Z,36.43
2023-03-04T21:54:48.313Z,54.43
2023-03-04T21:57:15.324Z,96.70
2023-03-04T21:59:42.496Z,67.83
2023-03-04T22:02:23.149Z,62.47
2023-03-04T22:04:50.216Z,54.03
2023-03-04T22:07:17.376Z,44.93
2023-03-04T22:09:44.537Z,47.50
2023-03-04T22:12:11.533Z,40.87
2023-03-04T22:14:38.516Z,28.13
2023-03-04T22:17:08.642Z,27.83
2023-03-04T22:19:35.754Z,26.00
2023-03-04T22:22:02.879Z,30.37
2023-03-04T22:24:29.894Z,27.63
2023-03-04T22:26:57.806Z,25.83
2023-03-04T22:29:24.809Z,22.47
2023-03-04T22:31:51.909Z,23.30
2023-03-04T22:34:19.043Z,27.27
2023-03-04T22:36:47.204Z,28.33
2023-03-04T22:39:19.386Z,26.23
2023-03-04T22:41:46.514Z,24.00
2023-03-04T22:44:14.156Z,30.30
2023-03-04T22:46:41.247Z,30.10
2023-03-04T22:49:10.449Z,30.17
2023-03-04T22:51:41.520Z,31.63
2023-03-04T22:54:11.000Z,31.90
2023-03-04T22:56:39.226Z,28.47
2023-03-04T22:59:06.603Z,30.93
2023-03-04T23:01:33.724Z,31.83
2023-03-04T23:04:01.536Z,27.63
2023-03-04T23:06:30.461Z,32.13
2023-03-04T23:08:58.970Z,35.23
2023-03-04T23:11:29.082Z,35.63
2023-03-04T23:13:56.949Z,36.67
2023-03-04T23:16:25.229Z,32.23
2023-03-04T23:18:53.383Z,29.03
2023-03-04T23:21:24.046Z,22.80
2023-03-04T23:23:52.957Z,25.83
2023-03-04T23:26:25.706Z,25.43
2023-03-04T23:28:55.723Z,22.73
2023-03-04T23:31:22.926Z,22.17
2023-03-04T23:33:49.930Z,23.97
2023-03-04T23:36:18.953Z,23.67
2023-03-04T23:38:48.134Z,23.77
2023-03-04T23:41:17.837Z,23.37
2023-03-04T23:43:45.309Z,21.97
2023-03-04T23:46:12.877Z,22.20
2023-03-04T23:48:43.281Z,24.43
2023-03-04T23:51:10.722Z,23.90
2023-03-04T23:53:39.238Z,24.70
2023-03-04T23:56:14.774Z,27.70
2023-03-04T23:58:42.798Z,25.37
